createdAt,value
2018-02-06T00:01:06.641Z,76.60
2018-02-06T00:03:34.839Z,76.40
2018-02-06T00:06:02.302Z,76.40
2018-02-06T00:08:29.736Z,76.70
2018-02-06T00:10:57.168Z,76.70
2018-02-06T00:13:24.641Z,76.80
2018-02-06T00:15:52.836Z,77.00
2018-02-06T00:18:20.287Z,76.90
2018-02-06T00:20:48.467Z,76.80
2018-02-06T00:23:15.896Z,76.80
2018-02-06T00:25:44.100Z,76.80
2018-02-06T00:28:11.547Z,76.70
2018-02-06T00:30:39.758Z,76.80
2018-02-06T00:33:07.187Z,76.80
2018-02-06T00:35:34.612Z,76.40
2018-02-06T00:38:02.045Z,77.00
2018-02-06T00:40:29.478Z,76.60
2018-02-06T00:42:56.932Z,77.90
2018-02-06T00:45:24.511Z,76.60
2018-02-06T00:47:51.920Z,76.60
2018-02-06T00:50:20.134Z,78.10
2018-02-06T00:52:47.572Z,78.00
2018-02-06T00:55:14.993Z,78.20
2018-02-06T00:57:43.198Z,78.90
2018-02-06T01:00:10.640Z,78.10
2018-02-06T01:02:38.873Z,77.90
2018-02-06T01:05:06.327Z,77.90
2018-02-06T01:07:33.741Z,78.00
2018-02-06T01:10:01.184Z,78.00
2018-02-06T01:12:29.397Z,78.70
2018-02-06T01:14:56.833Z,78.60
2018-02-06T01:17:24.325Z,78.50
2018-02-06T01:19:51.740Z,78.30
2018-02-06T01:22:19.196Z,77.90
2018-02-06T01:24:47.385Z,79.50
2018-02-06T01:27:14.816Z,79.50
2018-02-06T01:29:43.016Z,79.10
2018-02-06T01:32:10.456Z,78.90
2018-02-06T01:34:38.647Z,79.40
2018-02-06T01:37:06.081Z,79.30
2018-02-06T01:39:34.290Z,79.80
2018-02-06T01:42:01.704Z,79.70
2018-02-06T01:44:29.160Z,79.90
2018-02-06T01:46:56.604Z,80.10
2018-02-06T01:49:24.043Z,80.60
2018-02-06T01:51:51.464Z,80.70
2018-02-06T01:54:18.893Z,80.70
2018-02-06T01:56:47.114Z,81.40
2018-02-06T01:59:14.537Z,81.30
2018-02-06T02:01:42.727Z,81.90
2018-02-06T02:04:10.155Z,81.90
2018-02-06T02:06:37.573Z,82.10
2018-02-06T02:09:05.016Z,82.70
2018-02-06T02:11:32.423Z,83.10
2018-02-06T02:13:59.851Z,83.20
2018-02-06T02:16:27.350Z,82.90
2018-02-06T02:18:55.559Z,83.10
2018-02-06T02:21:22.984Z,83.10
2018-02-06T02:23:51.180Z,83.20
2018-02-06T02:26:18.623Z,83.10
2018-02-06T02:28:46.104Z,83.00
2018-02-06T02:31:13.512Z,83.30
2018-02-06T02:33:40.952Z,83.00
2018-02-06T02:36:08.435Z,82.90
2018-02-06T02:38:36.642Z,83.80
2018-02-06T02:41:04.064Z,83.60
2018-02-06T04:39:14.185Z,86.90
2018-02-06T04:41:41.661Z,87.20
2018-02-06T04:44:09.087Z,87.70
2018-02-06T04:46:36.524Z,87.00
2018-02-06T04:49:03.940Z,87.70
2018-02-06T04:51:31.371Z,87.40
2018-02-06T04:53:58.811Z,86.90
2018-02-06T04:56:26.251Z,86.90
2018-02-06T04:58:54.597Z,86.80
2018-02-06T05:01:22.027Z,86.70
2018-02-06T05:03:49.447Z,86.90
2018-02-06T05:06:16.891Z,86.30
2018-02-06T05:08:45.085Z,86.20
2018-02-06T05:11:12.506Z,86.20
2018-02-06T05:13:40.709Z,86.40
2018-02-06T05:16:08.227Z,86.40
2018-02-06T05:18:35.655Z,86.20
2018-02-06T05:21:03.094Z,86.70
2018-02-06T05:23:31.392Z,86.70
2018-02-06T05:25:58.843Z,86.90
2018-02-06T05:28:26.278Z,87.10
2018-02-06T05:30:54.624Z,87.30
2018-02-06T05:33:22.816Z,87.90
2018-02-06T05:35:50.252Z,87.80
2018-02-06T05:38:17.684Z,87.50
2018-02-06T05:40:45.127Z,88.30
2018-02-06T05:43:12.581Z,88.00
2018-02-06T05:45:40.009Z,87.70
2018-02-06T05:48:07.432Z,87.10
2018-02-06T05:50:34.874Z,87.50
2018-02-06T05:53:02.299Z,87.50
2018-02-06T05:55:29.737Z,87.50
2018-02-06T05:57:57.162Z,87.30
2018-02-06T06:00:24.605Z,87.50
2018-02-06T06:02:52.044Z,87.20
2018-02-06T06:05:19.468Z,86.80
2018-02-06T06:07:46.887Z,87.30
2018-02-06T06:10:14.316Z,87.10
2018-02-06T06:12:41.761Z,87.00
2018-02-06T06:15:09.240Z,86.60
2018-02-06T06:17:36.677Z,86.60
2018-02-06T06:20:04.101Z,86.00
2018-02-06T06:22:32.305Z,85.80
2018-02-06T06:24:59.732Z,85.80
2018-02-06T06:27:27.182Z,86.30
2018-02-06T06:29:54.878Z,86.30
2018-02-06T06:32:22.308Z,86.90
2018-02-06T06:34:50.552Z,86.30
2018-02-06T06:37:17.980Z,86.30
2018-02-06T06:39:45.426Z,86.00
2018-02-06T06:42:12.856Z,85.80
2018-02-06T06:44:40.300Z,86.20
2018-02-06T06:47:08.500Z,86.10
2018-02-06T06:49:35.938Z,86.10
2018-02-06T06:52:04.172Z,86.90
2018-02-06T06:54:31.618Z,86.60
2018-02-06T06:56:59.049Z,87.10
2018-02-06T06:59:26.493Z,87.10
2018-02-06T07:01:55.621Z,86.80
2018-02-06T07:04:23.066Z,86.80
2018-02-06T07:06:50.511Z,86.70
2018-02-06T07:09:17.949Z,87.00
2018-02-06T07:11:46.159Z,86.10
2018-02-06T07:14:13.580Z,86.00
2018-02-06T07:16:41.874Z,86.60
2018-02-06T07:19:10.101Z,86.90
2018-02-06T07:21:38.320Z,87.00
2018-02-06T07:24:05.816Z,86.50
2018-02-06T07:26:33.263Z,87.70
2018-02-06T07:29:00.707Z,87.30
2018-02-06T07:31:28.192Z,86.80
2018-02-06T07:33:55.662Z,87.10
2018-02-06T07:36:23.113Z,87.20
2018-02-06T07:38:50.572Z,86.90
2018-02-06T07:41:18.007Z,87.10
2018-02-06T07:43:45.441Z,86.40
2018-02-06T07:46:13.653Z,85.70
2018-02-06T07:48:41.089Z,85.60
2018-02-06T07:51:08.536Z,86.10
2018-02-06T07:53:35.968Z,86.30
2018-02-06T07:56:03.409Z,86.60
2018-02-06T07:58:30.861Z,86.10
2018-02-06T08:00:58.298Z,86.10
2018-02-06T08:03:25.734Z,85.30
2018-02-06T08:05:53.199Z,84.80
2018-02-06T08:08:20.657Z,84.90
2018-02-06T08:10:48.102Z,85.10
2018-02-06T08:13:15.562Z,84.50
2018-02-06T08:15:43.751Z,83.50
2018-02-06T08:18:11.196Z,83.40
2018-02-06T08:20:38.633Z,83.10
2018-02-06T08:23:06.834Z,82.20
2018-02-06T08:25:34.261Z,82.10
2018-02-06T08:28:02.474Z,82.40
2018-02-06T08:30:29.906Z,82.30
2018-02-06T08:32:57.342Z,80.40
2018-02-06T08:35:24.768Z,77.20
2018-02-06T08:37:52.214Z,75.40
2018-02-06T08:40:19.645Z,72.30
2018-02-06T08:42:47.077Z,69.30
2018-02-06T08:45:15.295Z,65.30
2018-02-06T08:47:42.750Z,65.20
2018-02-06T08:50:10.291Z,64.00
2018-02-06T08:52:37.789Z,63.40
2018-02-06T08:55:05.222Z,59.30
2018-02-06T08:57:32.696Z,56.40
2018-02-06T09:00:00.133Z,53.70
2018-02-06T09:02:27.598Z,51.80
2018-02-06T09:04:55.193Z,50.50
2018-02-06T09:07:22.626Z,49.30
2018-02-06T09:09:50.103Z,49.20
2018-02-06T09:12:17.520Z,49.20
2018-02-06T09:14:44.963Z,49.30
2018-02-06T09:17:13.148Z,48.30
2018-02-06T09:19:40.593Z,48.30
2018-02-06T09:22:08.794Z,46.80
2018-02-06T09:24:36.249Z,46.70
2018-02-06T09:27:03.677Z,46.10
2018-02-06T09:29:31.898Z,46.00
2018-02-06T09:31:59.344Z,46.00
2018-02-06T09:34:27.012Z,44.50
2018-02-06T09:36:56.152Z,43.30
2018-02-06T09:39:23.593Z,43.30
2018-02-06T09:41:51.023Z,42.10
2018-02-06T09:44:18.526Z,40.40
2018-02-06T09:46:45.950Z,39.10
2018-02-06T09:49:14.156Z,35.70
2018-02-06T09:51:41.953Z,35.60
2018-02-06T09:54:09.405Z,35.00
2018-02-06T09:56:37.614Z,35.50
2018-02-06T09:59:05.069Z,35.40
2018-02-06T10:01:32.512Z,37.10
2018-02-06T10:03:59.941Z,40.50
2018-02-06T10:06:28.150Z,46.90
2018-02-06T10:08:55.598Z,46.70
2018-02-06T10:11:23.509Z,49.60
2018-02-06T10:13:52.124Z,52.50
2018-02-06T10:16:19.548Z,52.90
2018-02-06T10:18:47.007Z,55.70
2018-02-06T10:21:14.512Z,56.90
2018-02-06T10:23:41.921Z,56.70
2018-02-06T10:26:10.112Z,58.40
2018-02-06T10:28:37.553Z,58.40
2018-02-06T10:31:05.773Z,59.40
2018-02-06T10:33:33.995Z,60.00
2018-02-06T10:36:01.421Z,60.00
2018-02-06T10:38:28.851Z,59.30
2018-02-06T10:40:57.057Z,60.10
2018-02-06T10:43:24.492Z,60.10
2018-02-06T10:45:52.700Z,58.00
2018-02-06T10:48:20.154Z,57.90
2018-02-06T10:50:47.630Z,58.00
2018-02-06T10:53:15.074Z,58.80
2018-02-06T10:55:42.553Z,58.10
2018-02-06T10:58:09.980Z,57.20
2018-02-06T11:00:37.419Z,58.10
2018-02-06T11:03:04.859Z,58.80
2018-02-06T11:05:33.065Z,58.40
2018-02-06T11:08:00.522Z,58.40
2018-02-06T11:10:27.960Z,59.90
2018-02-06T11:12:56.153Z,61.00
2018-02-06T11:15:23.588Z,60.90
2018-02-06T11:17:51.783Z,62.00
2018-02-06T11:20:19.242Z,61.80
2018-02-06T11:22:46.669Z,61.60
2018-02-06T11:25:14.908Z,64.70
2018-02-06T11:27:42.330Z,64.50
2018-02-06T11:30:09.809Z,64.10
2018-02-06T11:32:37.242Z,64.20
2018-02-06T11:35:04.672Z,65.10
2018-02-06T11:37:32.159Z,64.70
2018-02-06T11:39:59.553Z,64.30
2018-02-06T11:42:26.964Z,65.70
2018-02-06T11:44:55.316Z,66.50
2018-02-06T11:47:22.782Z,68.00
2018-02-06T11:49:50.270Z,67.30
2018-02-06T11:52:17.700Z,66.60
2018-02-06T11:54:45.909Z,66.20
2018-02-06T11:57:13.340Z,66.10
2018-02-06T11:59:41.557Z,66.20
2018-02-06T12:02:08.968Z,65.90
2018-02-06T12:04:37.177Z,66.60
2018-02-06T12:07:04.603Z,66.60
2018-02-06T12:09:32.805Z,67.10
2018-02-06T12:12:00.254Z,67.10
2018-02-06T12:14:27.696Z,65.70
2018-02-06T12:16:55.515Z,66.90
2018-02-06T12:19:22.964Z,66.60
2018-02-06T12:21:50.406Z,66.20
2018-02-06T12:24:17.857Z,65.90
2018-02-06T12:26:45.288Z,66.40
2018-02-06T12:29:13.480Z,66.90
2018-02-06T12:31:40.911Z,66.80
2018-02-06T12:34:09.448Z,67.00
2018-02-06T12:36:37.785Z,66.90
2018-02-06T12:39:05.960Z,66.70
2018-02-06T12:41:34.163Z,67.80
2018-02-06T12:44:01.590Z,67.80
2018-02-06T12:46:29.799Z,67.60
2018-02-06T12:48:57.220Z,67.60
2018-02-06T12:51:25.424Z,68.00
2018-02-06T12:53:52.866Z,67.90
2018-02-06T12:56:20.370Z,68.10
2018-02-06T12:58:47.813Z,66.50
2018-02-06T13:01:15.262Z,65.80
2018-02-06T13:03:43.494Z,66.80
2018-02-06T13:06:11.713Z,65.90
2018-02-06T13:08:39.177Z,65.90
2018-02-06T13:11:06.636Z,65.70
2018-02-06T13:13:34.082Z,64.80
2018-02-06T13:16:01.603Z,65.40
2018-02-06T13:18:29.804Z,66.30
2018-02-06T13:20:57.255Z,66.30
2018-02-06T13:23:24.707Z,65.40
2018-02-06T13:25:52.918Z,65.60
2018-02-06T13:28:21.128Z,64.90
2018-02-06T13:30:48.563Z,64.90
2018-02-06T13:33:15.984Z,66.10
2018-02-06T13:35:43.464Z,67.00
2018-02-06T13:38:11.615Z,65.10
2018-02-06T13:40:39.069Z,65.00
2018-02-06T13:43:06.493Z,64.70
2018-02-06T13:45:33.948Z,65.50
2018-02-06T13:48:01.399Z,64.20
2018-02-06T13:50:28.845Z,63.60
2018-02-06T13:52:56.284Z,63.30
2018-02-06T13:55:23.717Z,63.40
2018-02-06T13:57:53.928Z,63.00
2018-02-06T14:00:21.376Z,62.50
2018-02-06T14:02:49.574Z,63.40
2018-02-06T14:05:17.055Z,63.20
2018-02-06T14:07:44.472Z,64.00
2018-02-06T14:10:12.697Z,64.40
2018-02-06T14:12:40.130Z,64.30
2018-02-06T14:15:07.569Z,65.10
2018-02-06T14:17:35.038Z,65.60
2018-02-06T14:20:02.485Z,66.80
2018-02-06T14:22:30.701Z,66.30
2018-02-06T14:24:58.144Z,66.20
2018-02-06T14:27:25.568Z,64.70
2018-02-06T14:29:53.756Z,66.10
2018-02-06T14:32:21.187Z,66.10
2018-02-06T14:34:49.376Z,66.80
2018-02-06T14:37:16.844Z,66.60
2018-02-06T14:39:44.264Z,67.00
2018-02-06T14:42:11.727Z,66.40
2018-02-06T14:44:39.116Z,67.10
2018-02-06T14:47:06.561Z,67.20
2018-02-06T14:49:34.777Z,66.80
2018-02-06T14:52:02.978Z,67.90
2018-02-06T14:54:30.409Z,67.80
2018-02-06T14:56:57.851Z,66.20
2018-02-06T14:59:25.272Z,66.80
2018-02-06T15:01:53.485Z,68.10
2018-02-06T15:04:20.913Z,68.00
2018-02-06T15:06:49.112Z,68.90
2018-02-06T15:09:16.564Z,68.80
2018-02-06T15:11:44.040Z,67.70
2018-02-06T15:14:12.190Z,69.20
2018-02-06T15:16:39.659Z,69.20
2018-02-06T15:19:07.091Z,69.30
2018-02-06T15:21:35.307Z,68.90
2018-02-06T15:24:02.764Z,68.90
2018-02-06T15:26:30.196Z,68.90
2018-02-06T15:28:57.625Z,69.20
2018-02-06T15:31:25.843Z,68.80
2018-02-06T15:33:53.280Z,68.70
2018-02-06T15:36:20.713Z,69.70
2018-02-06T15:38:48.170Z,69.30
2018-02-06T15:41:15.624Z,69.70
2018-02-06T15:43:43.048Z,69.00
2018-02-06T15:46:10.526Z,68.60
2018-02-06T15:48:37.929Z,69.70
2018-02-06T15:51:05.379Z,69.30
2018-02-06T15:53:33.548Z,69.20
2018-02-06T15:56:01.754Z,70.00
2018-02-06T15:58:29.177Z,69.90
2018-02-06T16:01:14.054Z,70.20
2018-02-06T16:03:41.511Z,70.10
2018-02-06T16:06:08.940Z,70.30
2018-02-06T16:08:36.383Z,70.40
2018-02-06T16:11:03.823Z,70.00
2018-02-06T16:13:31.249Z,70.40
2018-02-06T16:15:58.676Z,70.20
2018-02-06T16:18:26.885Z,70.50
2018-02-06T16:20:54.296Z,70.40
2018-02-06T16:23:21.728Z,71.00
2018-02-06T16:25:49.179Z,71.80
2018-02-06T16:28:16.623Z,70.20
2018-02-06T16:30:44.055Z,71.20
2018-02-06T16:33:11.492Z,71.20
2018-02-06T16:35:38.928Z,71.50
2018-02-06T16:38:07.300Z,71.20
2018-02-06T16:40:34.773Z,71.90
2018-02-06T16:43:02.196Z,72.10
2018-02-06T16:45:29.633Z,71.60
2018-02-06T16:47:57.069Z,71.70
2018-02-06T16:50:25.261Z,72.40
2018-02-06T16:52:52.692Z,72.40
2018-02-06T16:55:20.919Z,72.30
2018-02-06T16:57:48.352Z,72.30
2018-02-06T17:00:15.787Z,72.10
2018-02-06T17:02:43.305Z,72.60
2018-02-06T17:05:10.742Z,71.60
2018-02-06T17:07:38.218Z,72.40
2018-02-06T17:10:05.653Z,71.80
2018-02-06T17:12:33.087Z,72.40
2018-02-06T17:15:01.274Z,72.50
2018-02-06T17:17:28.716Z,72.50
2018-02-06T17:19:56.924Z,71.80
2018-02-06T17:22:24.691Z,71.70
2018-02-06T17:24:52.104Z,71.60
2018-02-06T17:27:20.328Z,71.40
2018-02-06T17:29:47.763Z,71.30
2018-02-06T17:32:15.454Z,70.80
2018-02-06T17:34:42.881Z,70.30
2018-02-06T17:37:10.273Z,70.30
2018-02-06T17:39:37.709Z,71.40
2018-02-06T17:42:05.166Z,71.30
2018-02-06T17:44:32.594Z,72.50
2018-02-06T17:47:00.791Z,71.90
2018-02-06T17:49:28.232Z,71.80
2018-02-06T17:51:56.493Z,71.70
2018-02-06T17:54:24.719Z,71.00
2018-02-06T17:56:52.152Z,71.00
2018-02-06T17:59:19.600Z,71.70
2018-02-06T18:01:47.041Z,72.10
2018-02-06T18:04:15.244Z,73.70
2018-02-06T18:06:43.736Z,72.80
2018-02-06T18:09:11.164Z,73.40
2018-02-06T18:11:38.612Z,73.10
2018-02-06T18:14:06.825Z,74.00
2018-02-06T18:16:34.258Z,73.00
2018-02-06T18:19:02.473Z,73.10
2018-02-06T18:21:29.898Z,73.00
2018-02-06T18:23:58.390Z,73.60
2018-02-06T18:26:26.609Z,73.40
2018-02-06T18:28:54.797Z,73.90
2018-02-06T18:31:22.278Z,73.70
2018-02-06T18:33:49.660Z,72.90
2018-02-06T18:36:17.137Z,73.80
2018-02-06T18:38:44.583Z,73.30
2018-02-06T18:41:12.017Z,73.50
2018-02-06T18:43:39.467Z,73.50
2018-02-06T18:46:08.625Z,74.00
2018-02-06T18:48:36.255Z,74.00
2018-02-06T18:51:03.675Z,74.30
2018-02-06T18:53:31.877Z,74.90
2018-02-06T18:55:59.296Z,74.90
2018-02-06T18:58:27.503Z,75.20
2018-02-06T19:00:54.952Z,75.10
2018-02-06T19:03:22.391Z,75.00
2018-02-06T19:05:50.587Z,75.20
2018-02-06T19:08:18.173Z,75.10
2018-02-06T19:10:45.595Z,74.50
2018-02-06T19:13:13.084Z,73.80
2018-02-06T19:15:40.517Z,73.90
2018-02-06T19:18:08.771Z,73.30
2018-02-06T19:20:37.030Z,74.10
2018-02-06T19:23:04.460Z,74.10
2018-02-06T19:25:31.892Z,74.10
2018-02-06T19:27:59.349Z,74.10
2018-02-06T19:30:26.787Z,74.40
2018-02-06T19:32:54.989Z,73.50
2018-02-06T19:35:22.452Z,73.50
2018-02-06T19:37:49.868Z,73.90
2018-02-06T19:40:18.076Z,73.60
2018-02-06T19:42:45.517Z,73.50
2018-02-06T19:45:13.719Z,73.30
2018-02-06T19:47:41.175Z,73.30
2018-02-06T19:50:08.990Z,73.00
2018-02-06T19:52:36.528Z,72.60
2018-02-06T19:55:03.960Z,73.20
2018-02-06T19:57:31.391Z,72.50
2018-02-06T19:59:58.878Z,72.80
2018-02-06T20:02:26.303Z,72.90
2018-02-06T20:04:53.735Z,72.50
2018-02-06T20:07:21.950Z,71.00
2018-02-06T20:09:49.400Z,71.70
2018-02-06T20:12:16.867Z,72.10
2018-02-06T20:14:44.299Z,72.60
2018-02-06T20:17:12.525Z,73.60
2018-02-06T20:19:40.067Z,74.30
2018-02-06T20:22:07.500Z,73.20
2018-02-06T20:24:34.937Z,72.90
2018-02-06T20:27:02.362Z,73.40
2018-02-06T20:29:29.796Z,73.70
2018-02-06T20:31:57.232Z,73.20
2018-02-06T20:34:25.431Z,73.70
2018-02-06T20:36:52.852Z,73.50
2018-02-06T20:39:21.064Z,74.10
2018-02-06T20:41:48.503Z,74.10
2018-02-06T20:44:16.804Z,74.40
2018-02-06T20:46:44.225Z,74.30
2018-02-06T20:49:12.504Z,74.40
2018-02-06T20:51:39.958Z,74.40
2018-02-06T20:54:08.300Z,74.80
2018-02-06T20:56:36.637Z,74.00
2018-02-06T20:59:04.061Z,74.00
2018-02-06T21:01:32.268Z,74.60
2018-02-06T21:03:59.702Z,74.50
2018-02-06T21:06:27.897Z,74.80
2018-02-06T21:08:55.321Z,74.70
2018-02-06T21:11:23.541Z,75.30
2018-02-06T21:13:50.967Z,75.30
2018-02-06T21:16:19.181Z,75.80
2018-02-06T21:18:46.621Z,75.80
2018-02-06T21:21:14.069Z,75.80
2018-02-06T21:23:42.259Z,75.80
2018-02-06T21:26:09.692Z,75.80
2018-02-06T21:28:37.905Z,75.80
2018-02-06T21:31:05.347Z,75.70
2018-02-06T21:33:32.796Z,75.50
2018-02-06T21:36:00.224Z,75.30
2018-02-06T21:38:28.444Z,75.30
2018-02-06T21:40:55.887Z,75.30
2018-02-06T21:43:23.308Z,75.80
2018-02-06T21:45:50.765Z,75.30
2018-02-06T21:48:18.259Z,75.20
2018-02-06T21:50:45.692Z,76.00
2018-02-06T21:53:13.910Z,75.10
2018-02-06T21:55:41.328Z,75.10
2018-02-06T21:58:10.826Z,74.90
2018-02-06T22:00:39.767Z,75.10
2018-02-06T22:03:07.216Z,75.10
2018-02-06T22:05:34.652Z,75.30
2018-02-06T22:08:02.121Z,74.90
2018-02-06T22:10:29.580Z,75.10
2018-02-06T22:12:57.060Z,75.40
2018-02-06T22:15:24.479Z,75.50
2018-02-06T22:17:52.684Z,76.60
2018-02-06T22:20:20.137Z,76.60
2018-02-06T22:22:47.571Z,76.00
2018-02-06T22:25:15.017Z,76.60
2018-02-06T22:27:43.210Z,75.50
2018-02-06T22:30:10.660Z,75.50
2018-02-06T22:32:38.862Z,75.60
2018-02-06T22:35:06.296Z,75.60
2018-02-06T22:37:33.735Z,75.30
2018-02-06T22:40:01.189Z,75.40
2018-02-06T22:42:28.594Z,74.90
2018-02-06T22:44:56.037Z,75.80
2018-02-06T22:47:23.498Z,76.60
2018-02-06T22:49:50.921Z,76.00
2018-02-06T22:52:19.139Z,76.80
2018-02-06T22:54:46.592Z,76.80
2018-02-06T22:57:14.030Z,77.40
2018-02-06T22:59:41.473Z,77.90
2018-02-06T23:02:08.907Z,77.90
2018-02-06T23:04:36.351Z,78.20
2018-02-06T23:07:03.790Z,78.30
2018-02-06T23:09:31.246Z,78.30
2018-02-06T23:11:58.680Z,77.80
2018-02-06T23:14:26.121Z,78.20
2018-02-06T23:16:54.792Z,78.40
2018-02-06T23:19:22.219Z,78.30
2018-02-06T23:21:49.704Z,79.00
2018-02-06T23:24:17.142Z,78.20
2018-02-06T23:26:44.581Z,79.40
2018-02-06T23:29:12.010Z,78.00
2018-02-06T23:31:39.460Z,77.70
2018-02-06T23:34:07.660Z,77.70
2018-02-06T23:36:35.101Z,77.70
2018-02-06T23:39:02.544Z,78.10
2018-02-06T23:41:30.756Z,77.70
2018-02-06T23:43:58.228Z,77.70
2018-02-06T23:46:25.672Z,77.50
2018-02-06T23:48:53.091Z,78.20
2018-02-06T23:51:21.293Z,78.00
2018-02-06T23:53:48.711Z,78.00
2018-02-06T23:56:16.916Z,78.10
2018-02-06T23:58:44.373Z,78.10
